Airfield :







YOU CAN JOIN US ON...

 
LOGIN :

Register | Disclaimer

   EN    FR    IT 

 









Legend :    VFR   Marginal VFR   IFR   Intensive IFR   Very Intensive IFR
Visi :
Ceiling :
>= 8 km
>= 3000ft
5 to 8 km
1000 to 3000 ft
1500m to 5 km
500 to 1000 ft
800 to 1500m
200 to 500 ft
< 800m
< 200 ft
Symbols :   Thunderstorms  Fog  Heavy snow  Heavy precipitations  Wind > 20 kt







- Airport Elevation : 461 ft
- IATA code : YYT


CYYT - St John's Int

CURRENT METAR :
  • 262300Z 01003KT 15SM FEW220 10/06 A3033 RMK CI1 SLP276

EXPIRED METARs :
  • 262200Z 02005KT 010V070 15SM VCFG FEW220 11/06 A3033 RMK CI1 FG BNK NE SLP277
  • 262100Z 04006KT 15SM VCFG FEW030 FEW220 12/07 A3033 RMK SC1CI1 SC TR FG BNK E-S SLP275

TAF TAF CYYT
Valid from the 27 at 00:00 until the 28 at 00:00 UTC


262341Z 2700/2724 VRB03KT P6SM FEW200
PROB30 2700/2702 1SM BR OVC002
FM270200 18008KT 6SM BR FEW002
TEMPO 2702/2709 1SM BR OVC002
FM270900 10005KT 1/2SM FG VV002
BECMG 2711/2713 P6SM NSW SKC
FM271500 09005KT P6SM BKN040
FM271800 09005KT 2SM BR BKN005 OVC040
FM272200 10005KT 3/4SM BR VV002 RMK NXT FCST BY 270600Z
CZQX FIR / North America



MET'MAP, your aeronautical weather chart ! - Copyright ORBIFLY December 2007 - Disclaimer

ORBIFLY MET'MAP TEAM :

Programming & Development : Alexandra Zaïnal
Concept & Development : Baudouin d'Aumeries
Co-Development & Prog : Marc-Olivier Méhu
Technical & hardware support : Manuel Goepfert

Contact : metmap@orbifly.com




SOURCES & CREDITS :

   NOAA